sensor_id;sensor_type;location;lat;lon;timestamp;pressure;altitude;pressure_sealevel;temperature
58929;BMP180;44713;53.378;10.022;2023-07-20T00:01:19;100931.00;;;14.50
58929;BMP180;44713;53.378;10.022;2023-07-20T00:03:45;100927.00;;;14.50
58929;BMP180;44713;53.378;10.022;2023-07-20T00:06:10;100941.00;;;14.50
58929;BMP180;44713;53.378;10.022;2023-07-20T00:08:36;100938.00;;;14.50
58929;BMP180;44713;53.378;10.022;2023-07-20T00:11:01;100946.00;;;14.40
58929;BMP180;44713;53.378;10.022;2023-07-20T00:13:27;100939.00;;;14.40
58929;BMP180;44713;53.378;10.022;2023-07-20T00:15:52;100952.00;;;14.40
58929;BMP180;44713;53.378;10.022;2023-07-20T00:18:18;100951.00;;;14.40
58929;BMP180;44713;53.378;10.022;2023-07-20T00:20:46;100949.00;;;14.40
58929;BMP180;44713;53.378;10.022;2023-07-20T00:23:12;100942.00;;;14.40
58929;BMP180;44713;53.378;10.022;2023-07-20T00:25:37;100946.00;;;14.40
58929;BMP180;44713;53.378;10.022;2023-07-20T00:28:02;100942.00;;;14.40
58929;BMP180;44713;53.378;10.022;2023-07-20T00:30:28;100940.00;;;14.40
58929;BMP180;44713;53.378;10.022;2023-07-20T00:32:53;100937.00;;;14.40
58929;BMP180;44713;53.378;10.022;2023-07-20T00:35:18;100939.00;;;14.40
58929;BMP180;44713;53.378;10.022;2023-07-20T00:37:44;100933.00;;;14.40
58929;BMP180;44713;53.378;10.022;2023-07-20T00:40:09;100941.00;;;14.50
58929;BMP180;44713;53.378;10.022;2023-07-20T00:42:35;100943.00;;;14.40
58929;BMP180;44713;53.378;10.022;2023-07-20T00:45:02;100942.00;;;14.30
58929;BMP180;44713;53.378;10.022;2023-07-20T00:47:28;100938.00;;;14.40
58929;BMP180;44713;53.378;10.022;2023-07-20T00:49:54;100942.00;;;14.50
58929;BMP180;44713;53.378;10.022;2023-07-20T00:52:21;100944.00;;;14.50
58929;BMP180;44713;53.378;10.022;2023-07-20T00:54:48;100936.00;;;14.40
58929;BMP180;44713;53.378;10.022;2023-07-20T00:57:15;100937.00;;;14.40
58929;BMP180;44713;53.378;10.022;2023-07-20T00:59:41;100928.00;;;14.40
58929;BMP180;44713;53.378;10.022;2023-07-20T01:02:06;100937.00;;;14.40
58929;BMP180;44713;53.378;10.022;2023-07-20T01:04:32;100937.00;;;14.50
58929;BMP180;44713;53.378;10.022;2023-07-20T01:07:05;100942.00;;;14.50
58929;BMP180;44713;53.378;10.022;2023-07-20T01:09:41;100939.00;;;14.50
58929;BMP180;44713;53.378;10.022;2023-07-20T01:12:12;100939.00;;;14.50
58929;BMP180;44713;53.378;10.022;2023-07-20T01:14:40;100938.00;;;14.50
58929;BMP180;44713;53.378;10.022;2023-07-20T01:17:05;100932.00;;;14.50
58929;BMP180;44713;53.378;10.022;2023-07-20T01:19:30;100930.00;;;14.40
58929;BMP180;44713;53.378;10.022;2023-07-20T01:25:07;100925.00;;;14.50
58929;BMP180;44713;53.378;10.022;2023-07-20T01:30:43;100931.00;;;14.50
58929;BMP180;44713;53.378;10.022;2023-07-20T01:33:13;100930.00;;;14.40
58929;BMP180;44713;53.378;10.022;2023-07-20T01:35:41;100932.00;;;14.40
58929;BMP180;44713;53.378;10.022;2023-07-20T01:38:07;100939.00;;;14.40
58929;BMP180;44713;53.378;10.022;2023-07-20T01:40:34;100928.00;;;14.50
58929;BMP180;44713;53.378;10.022;2023-07-20T01:43:02;100932.00;;;14.40
58929;BMP180;44713;53.378;10.022;2023-07-20T01:45:28;100938.00;;;14.50
58929;BMP180;44713;53.378;10.022;2023-07-20T01:47:53;100917.00;;;14.50
58929;BMP180;44713;53.378;10.022;2023-07-20T01:50:19;100919.00;;;14.60
58929;BMP180;44713;53.378;10.022;2023-07-20T01:52:44;100915.00;;;14.60
58929;BMP180;44713;53.378;10.022;2023-07-20T01:55:09;100922.00;;;14.50
58929;BMP180;44713;53.378;10.022;2023-07-20T01:57:35;100919.00;;;14.60
58929;BMP180;44713;53.378;10.022;2023-07-20T02:00:00;100929.00;;;14.50
58929;BMP180;44713;53.378;10.022;2023-07-20T02:02:27;100919.00;;;14.50
58929;BMP180;44713;53.378;10.022;2023-07-20T02:04:53;100913.00;;;14.50
58929;BMP180;44713;53.378;10.022;2023-07-20T02:07:19;100914.00;;;14.60
58929;BMP180;44713;53.378;10.022;2023-07-20T02:09:45;100910.00;;;14.60
58929;BMP180;44713;53.378;10.022;2023-07-20T02:12:10;100918.00;;;14.60
58929;BMP180;44713;53.378;10.022;2023-07-20T02:14:35;100915.00;;;14.60
58929;BMP180;44713;53.378;10.022;2023-07-20T02:17:01;100915.00;;;14.50
58929;BMP180;44713;53.378;10.022;2023-07-20T02:19:29;100926.00;;;14.40
58929;BMP180;44713;53.378;10.022;2023-07-20T02:21:55;100919.00;;;14.50
58929;BMP180;44713;53.378;10.022;2023-07-20T02:24:20;100924.00;;;14.50
58929;BMP180;44713;53.378;10.022;2023-07-20T02:26:45;100922.00;;;14.40
58929;BMP180;44713;53.378;10.022;2023-07-20T02:29:11;100925.00;;;14.50
58929;BMP180;44713;53.378;10.022;2023-07-20T02:31:39;100927.00;;;14.40
58929;BMP180;44713;53.378;10.022;2023-07-20T02:34:08;100922.00;;;14.40
58929;BMP180;44713;53.378;10.022;2023-07-20T02:36:34;100922.00;;;14.50
58929;BMP180;44713;53.378;10.022;2023-07-20T02:38:59;100928.00;;;14.40
58929;BMP180;44713;53.378;10.022;2023-07-20T02:41:26;100936.00;;;14.50
58929;BMP180;44713;53.378;10.022;2023-07-20T02:43:51;100934.00;;;14.50
58929;BMP180;44713;53.378;10.022;2023-07-20T02:46:17;100949.00;;;14.50
58929;BMP180;44713;53.378;10.022;2023-07-20T02:48:42;100935.00;;;14.50
58929;BMP180;44713;53.378;10.022;2023-07-20T02:51:08;100936.00;;;14.50
58929;BMP180;44713;53.378;10.022;2023-07-20T02:53:34;100936.00;;;14.50
58929;BMP180;44713;53.378;10.022;2023-07-20T02:55:59;100927.00;;;14.50
58929;BMP180;44713;53.378;10.022;2023-07-20T02:58:25;100932.00;;;14.50
58929;BMP180;44713;53.378;10.022;2023-07-20T03:00:50;100925.00;;;14.50
58929;BMP180;44713;53.378;10.022;2023-07-20T03:03:15;100930.00;;;14.40
58929;BMP180;44713;53.378;10.022;2023-07-20T03:05:41;100936.00;;;14.50
58929;BMP180;44713;53.378;10.022;2023-07-20T03:08:07;100941.00;;;14.40
58929;BMP180;44713;53.378;10.022;2023-07-20T03:10:32;100945.00;;;14.40
58929;BMP180;44713;53.378;10.022;2023-07-20T03:12:58;100941.00;;;14.40
58929;BMP180;44713;53.378;10.022;2023-07-20T03:15:23;100943.00;;;14.50
58929;BMP180;44713;53.378;10.022;2023-07-20T03:17:49;100941.00;;;14.50
58929;BMP180;44713;53.378;10.022;2023-07-20T03:20:15;100947.00;;;14.50
58929;BMP180;44713;53.378;10.022;2023-07-20T03:22:40;100944.00;;;14.50
58929;BMP180;44713;53.378;10.022;2023-07-20T03:25:06;100941.00;;;14.40
58929;BMP180;44713;53.378;10.022;2023-07-20T03:27:32;100939.00;;;14.30
58929;BMP180;44713;53.378;10.022;2023-07-20T03:29:59;100940.00;;;14.30
58929;BMP180;44713;53.378;10.022;2023-07-20T03:32:24;100947.00;;;14.30
58929;BMP180;44713;53.378;10.022;2023-07-20T03:34:50;100943.00;;;14.30
58929;BMP180;44713;53.378;10.022;2023-07-20T03:37:15;100954.00;;;14.30
58929;BMP180;44713;53.378;10.022;2023-07-20T03:39:41;100953.00;;;14.40
58929;BMP180;44713;53.378;10.022;2023-07-20T03:42:06;100945.00;;;14.30
58929;BMP180;44713;53.378;10.022;2023-07-20T03:44:33;100942.00;;;14.40
58929;BMP180;44713;53.378;10.022;2023-07-20T03:46:58;100941.00;;;14.40
58929;BMP180;44713;53.378;10.022;2023-07-20T03:49:23;100944.00;;;14.40
58929;BMP180;44713;53.378;10.022;2023-07-20T03:51:49;100942.00;;;14.50
58929;BMP180;44713;53.378;10.022;2023-07-20T03:54:14;100941.00;;;14.40
58929;BMP180;44713;53.378;10.022;2023-07-20T03:56:39;100942.00;;;14.40
58929;BMP180;44713;53.378;10.022;2023-07-20T03:59:05;100956.00;;;14.50
58929;BMP180;44713;53.378;10.022;2023-07-20T04:01:30;100961.00;;;14.50
58929;BMP180;44713;53.378;10.022;2023-07-20T04:03:59;100960.00;;;14.50
58929;BMP180;44713;53.378;10.022;2023-07-20T04:06:24;100961.00;;;14.50
58929;BMP180;44713;53.378;10.022;2023-07-20T04:08:50;100966.00;;;14.50
58929;BMP180;44713;53.378;10.022;2023-07-20T04:11:15;100960.00;;;14.40
58929;BMP180;44713;53.378;10.022;2023-07-20T04:13:40;100955.00;;;14.50
58929;BMP180;44713;53.378;10.022;2023-07-20T04:16:06;100955.00;;;14.40
58929;BMP180;44713;53.378;10.022;2023-07-20T04:18:31;100955.00;;;14.50
58929;BMP180;44713;53.378;10.022;2023-07-20T04:20:56;100943.00;;;14.40
58929;BMP180;44713;53.378;10.022;2023-07-20T04:23:22;100948.00;;;14.50
58929;BMP180;44713;53.378;10.022;2023-07-20T04:25:48;100961.00;;;14.50
58929;BMP180;44713;53.378;10.022;2023-07-20T04:28:14;100961.00;;;14.50
58929;BMP180;44713;53.378;10.022;2023-07-20T04:30:44;100965.00;;;14.60
58929;BMP180;44713;53.378;10.022;2023-07-20T04:33:10;100966.00;;;14.60
58929;BMP180;44713;53.378;10.022;2023-07-20T04:35:53;100975.00;;;14.70
58929;BMP180;44713;53.378;10.022;2023-07-20T04:38:31;100968.00;;;14.70
58929;BMP180;44713;53.378;10.022;2023-07-20T04:41:07;100966.00;;;14.70
58929;BMP180;44713;53.378;10.022;2023-07-20T04:43:41;100968.00;;;14.60
58929;BMP180;44713;53.378;10.022;2023-07-20T04:46:07;100966.00;;;14.60
58929;BMP180;44713;53.378;10.022;2023-07-20T04:48:34;100962.00;;;14.60
58929;BMP180;44713;53.378;10.022;2023-07-20T04:50:59;100971.00;;;14.70
58929;BMP180;44713;53.378;10.022;2023-07-20T04:53:24;100969.00;;;14.70
58929;BMP180;44713;53.378;10.022;2023-07-20T04:55:50;100968.00;;;14.80
58929;BMP180;44713;53.378;10.022;2023-07-20T04:58:18;100959.00;;;14.70
58929;BMP180;44713;53.378;10.022;2023-07-20T05:00:44;100968.00;;;14.70
58929;BMP180;44713;53.378;10.022;2023-07-20T05:03:09;100959.00;;;14.80
58929;BMP180;44713;53.378;10.022;2023-07-20T05:05:35;100968.00;;;14.90
58929;BMP180;44713;53.378;10.022;2023-07-20T05:08:01;100965.00;;;14.90
58929;BMP180;44713;53.378;10.022;2023-07-20T05:10:26;100971.00;;;14.90
58929;BMP180;44713;53.378;10.022;2023-07-20T05:12:51;100974.00;;;14.90
58929;BMP180;44713;53.378;10.022;2023-07-20T05:15:17;100969.00;;;14.90
58929;BMP180;44713;53.378;10.022;2023-07-20T05:17:42;100977.00;;;14.90
58929;BMP180;44713;53.378;10.022;2023-07-20T05:20:08;100973.00;;;14.90
58929;BMP180;44713;53.378;10.022;2023-07-20T05:22:37;100969.00;;;15.00
58929;BMP180;44713;53.378;10.022;2023-07-20T05:25:09;100968.00;;;15.10
58929;BMP180;44713;53.378;10.022;2023-07-20T05:27:36;100960.00;;;15.10
58929;BMP180;44713;53.378;10.022;2023-07-20T05:30:02;100970.00;;;15.00
58929;BMP180;44713;53.378;10.022;2023-07-20T05:32:28;100968.00;;;15.10
58929;BMP180;44713;53.378;10.022;2023-07-20T05:34:54;100963.00;;;15.10
58929;BMP180;44713;53.378;10.022;2023-07-20T05:37:20;100967.00;;;15.20
58929;BMP180;44713;53.378;10.022;2023-07-20T05:39:45;100964.00;;;15.10
58929;BMP180;44713;53.378;10.022;2023-07-20T05:42:10;100963.00;;;15.20
58929;BMP180;44713;53.378;10.022;2023-07-20T05:44:35;100961.00;;;15.30
58929;BMP180;44713;53.378;10.022;2023-07-20T05:47:01;100958.00;;;15.30
58929;BMP180;44713;53.378;10.022;2023-07-20T05:49:29;100959.00;;;15.40
58929;BMP180;44713;53.378;10.022;2023-07-20T05:51:55;100962.00;;;15.50
58929;BMP180;44713;53.378;10.022;2023-07-20T05:54:22;100970.00;;;15.50
58929;BMP180;44713;53.378;10.022;2023-07-20T05:56:48;100962.00;;;15.40
58929;BMP180;44713;53.378;10.022;2023-07-20T05:59:14;100973.00;;;15.50
58929;BMP180;44713;53.378;10.022;2023-07-20T06:01:40;100976.00;;;15.50
58929;BMP180;44713;53.378;10.022;2023-07-20T06:04:05;100973.00;;;15.50
58929;BMP180;44713;53.378;10.022;2023-07-20T06:06:30;100971.00;;;15.50
58929;BMP180;44713;53.378;10.022;2023-07-20T06:08:56;100974.00;;;15.50
58929;BMP180;44713;53.378;10.022;2023-07-20T06:11:21;100974.00;;;15.50
58929;BMP180;44713;53.378;10.022;2023-07-20T06:13:47;100982.00;;;15.60
58929;BMP180;44713;53.378;10.022;2023-07-20T06:16:12;100981.00;;;15.70
58929;BMP180;44713;53.378;10.022;2023-07-20T06:18:37;100984.00;;;15.70
58929;BMP180;44713;53.378;10.022;2023-07-20T06:21:03;100977.00;;;15.90
58929;BMP180;44713;53.378;10.022;2023-07-20T06:23:29;100984.00;;;15.90
58929;BMP180;44713;53.378;10.022;2023-07-20T06:25:54;100980.00;;;16.00
58929;BMP180;44713;53.378;10.022;2023-07-20T06:28:19;100982.00;;;16.00
58929;BMP180;44713;53.378;10.022;2023-07-20T06:30:45;100972.00;;;16.00
58929;BMP180;44713;53.378;10.022;2023-07-20T06:33:10;100980.00;;;16.10
58929;BMP180;44713;53.378;10.022;2023-07-20T06:35:35;100985.00;;;16.10
58929;BMP180;44713;53.378;10.022;2023-07-20T06:38:01;100975.00;;;16.30
58929;BMP180;44713;53.378;10.022;2023-07-20T06:40:29;100979.00;;;16.40
58929;BMP180;44713;53.378;10.022;2023-07-20T06:42:55;100974.00;;;16.50
58929;BMP180;44713;53.378;10.022;2023-07-20T06:45:21;100983.00;;;16.50
58929;BMP180;44713;53.378;10.022;2023-07-20T06:47:47;100979.00;;;16.60
58929;BMP180;44713;53.378;10.022;2023-07-20T06:50:12;100975.00;;;16.50
58929;BMP180;44713;53.378;10.022;2023-07-20T06:52:37;100977.00;;;16.60
58929;BMP180;44713;53.378;10.022;2023-07-20T06:55:03;100976.00;;;16.60
58929;BMP180;44713;53.378;10.022;2023-07-20T06:57:29;100978.00;;;16.60
58929;BMP180;44713;53.378;10.022;2023-07-20T06:59:54;100973.00;;;16.80
58929;BMP180;44713;53.378;10.022;2023-07-20T07:02:19;100977.00;;;16.90
58929;BMP180;44713;53.378;10.022;2023-07-20T07:04:45;100975.00;;;16.80
58929;BMP180;44713;53.378;10.022;2023-07-20T07:07:13;100982.00;;;17.00
58929;BMP180;44713;53.378;10.022;2023-07-20T07:09:39;100968.00;;;17.00
58929;BMP180;44713;53.378;10.022;2023-07-20T07:12:05;100969.00;;;17.10
58929;BMP180;44713;53.378;10.022;2023-07-20T07:14:30;100979.00;;;17.20
58929;BMP180;44713;53.378;10.022;2023-07-20T07:16:55;100970.00;;;17.30
58929;BMP180;44713;53.378;10.022;2023-07-20T07:19:21;100978.00;;;17.40
58929;BMP180;44713;53.378;10.022;2023-07-20T07:21:46;100971.00;;;17.50
58929;BMP180;44713;53.378;10.022;2023-07-20T07:24:11;100964.00;;;17.60
58929;BMP180;44713;53.378;10.022;2023-07-20T07:26:37;100974.00;;;17.50
58929;BMP180;44713;53.378;10.022;2023-07-20T07:29:03;100974.00;;;17.30
58929;BMP180;44713;53.378;10.022;2023-07-20T07:31:29;100963.00;;;17.30
58929;BMP180;44713;53.378;10.022;2023-07-20T07:33:56;100974.00;;;17.40
58929;BMP180;44713;53.378;10.022;2023-07-20T07:36:21;100971.00;;;17.70
58929;BMP180;44713;53.378;10.022;2023-07-20T07:38:46;100982.00;;;17.70
58929;BMP180;44713;53.378;10.022;2023-07-20T07:41:12;100980.00;;;17.60
58929;BMP180;44713;53.378;10.022;2023-07-20T07:43:37;100985.00;;;17.60
58929;BMP180;44713;53.378;10.022;2023-07-20T07:46:03;100981.00;;;17.60
58929;BMP180;44713;53.378;10.022;2023-07-20T07:48:29;100981.00;;;17.70
58929;BMP180;44713;53.378;10.022;2023-07-20T07:50:54;100984.00;;;17.80
58929;BMP180;44713;53.378;10.022;2023-07-20T07:53:20;100982.00;;;17.90
58929;BMP180;44713;53.378;10.022;2023-07-20T07:55:47;100989.00;;;17.90
58929;BMP180;44713;53.378;10.022;2023-07-20T07:58:13;100996.00;;;17.90
58929;BMP180;44713;53.378;10.022;2023-07-20T08:00:39;100993.00;;;17.60
58929;BMP180;44713;53.378;10.022;2023-07-20T08:03:06;101002.00;;;17.70
58929;BMP180;44713;53.378;10.022;2023-07-20T08:05:33;100991.00;;;17.80
58929;BMP180;44713;53.378;10.022;2023-07-20T08:07:58;100995.00;;;17.90
58929;BMP180;44713;53.378;10.022;2023-07-20T08:10:24;100991.00;;;18.00
58929;BMP180;44713;53.378;10.022;2023-07-20T08:12:49;100992.00;;;18.20
58929;BMP180;44713;53.378;10.022;2023-07-20T08:15:14;100995.00;;;18.30
58929;BMP180;44713;53.378;10.022;2023-07-20T08:17:41;100996.00;;;18.40
58929;BMP180;44713;53.378;10.022;2023-07-20T08:20:08;100995.00;;;18.40
58929;BMP180;44713;53.378;10.022;2023-07-20T08:22:36;100995.00;;;18.60
58929;BMP180;44713;53.378;10.022;2023-07-20T08:25:01;100998.00;;;18.50
58929;BMP180;44713;53.378;10.022;2023-07-20T08:27:26;100991.00;;;18.50
58929;BMP180;44713;53.378;10.022;2023-07-20T08:29:52;100988.00;;;18.80
58929;BMP180;44713;53.378;10.022;2023-07-20T08:32:17;101008.00;;;18.70
58929;BMP180;44713;53.378;10.022;2023-07-20T08:34:42;101006.00;;;18.70
58929;BMP180;44713;53.378;10.022;2023-07-20T08:37:08;101001.00;;;19.00
58929;BMP180;44713;53.378;10.022;2023-07-20T08:39:35;100997.00;;;19.20
58929;BMP180;44713;53.378;10.022;2023-07-20T08:42:01;100997.00;;;19.20
58929;BMP180;44713;53.378;10.022;2023-07-20T08:44:31;101009.00;;;19.40
58929;BMP180;44713;53.378;10.022;2023-07-20T08:46:57;101006.00;;;19.30
58929;BMP180;44713;53.378;10.022;2023-07-20T08:49:24;100997.00;;;19.20
58929;BMP180;44713;53.378;10.022;2023-07-20T08:51:51;100998.00;;;19.30
58929;BMP180;44713;53.378;10.022;2023-07-20T08:54:17;100986.00;;;19.50
58929;BMP180;44713;53.378;10.022;2023-07-20T08:56:45;100985.00;;;19.80
58929;BMP180;44713;53.378;10.022;2023-07-20T08:59:13;100989.00;;;19.90
58929;BMP180;44713;53.378;10.022;2023-07-20T09:01:40;100997.00;;;20.00
58929;BMP180;44713;53.378;10.022;2023-07-20T09:04:06;101012.00;;;19.90
58929;BMP180;44713;53.378;10.022;2023-07-20T09:06:31;101011.00;;;19.90
58929;BMP180;44713;53.378;10.022;2023-07-20T09:08:57;101010.00;;;19.90
58929;BMP180;44713;53.378;10.022;2023-07-20T09:11:22;101018.00;;;19.70
58929;BMP180;44713;53.378;10.022;2023-07-20T09:13:47;101016.00;;;19.40
58929;BMP180;44713;53.378;10.022;2023-07-20T09:16:13;101022.00;;;19.30
58929;BMP180;44713;53.378;10.022;2023-07-20T09:18:40;101026.00;;;19.20
58929;BMP180;44713;53.378;10.022;2023-07-20T09:21:05;101033.00;;;19.00
58929;BMP180;44713;53.378;10.022;2023-07-20T09:23:36;101042.00;;;19.30
58929;BMP180;44713;53.378;10.022;2023-07-20T09:26:12;101043.00;;;19.50
58929;BMP180;44713;53.378;10.022;2023-07-20T09:28:42;101048.00;;;19.10
58929;BMP180;44713;53.378;10.022;2023-07-20T09:31:16;101050.00;;;18.80
58929;BMP180;44713;53.378;10.022;2023-07-20T09:33:42;101041.00;;;18.70
58929;BMP180;44713;53.378;10.022;2023-07-20T09:36:09;101037.00;;;19.20
58929;BMP180;44713;53.378;10.022;2023-07-20T09:38:37;101035.00;;;19.60
58929;BMP180;44713;53.378;10.022;2023-07-20T09:41:02;101025.00;;;19.60
58929;BMP180;44713;53.378;10.022;2023-07-20T09:43:30;101027.00;;;20.10
58929;BMP180;44713;53.378;10.022;2023-07-20T09:45:58;101021.00;;;20.40
58929;BMP180;44713;53.378;10.022;2023-07-20T09:48:25;101017.00;;;20.70
58929;BMP180;44713;53.378;10.022;2023-07-20T09:50:51;101018.00;;;21.20
58929;BMP180;44713;53.378;10.022;2023-07-20T09:53:17;101015.00;;;21.30
58929;BMP180;44713;53.378;10.022;2023-07-20T09:55:47;101016.00;;;21.10
58929;BMP180;44713;53.378;10.022;2023-07-20T09:58:13;101001.00;;;21.30
58929;BMP180;44713;53.378;10.022;2023-07-20T10:00:40;101013.00;;;21.40
58929;BMP180;44713;53.378;10.022;2023-07-20T10:03:06;101010.00;;;21.40
58929;BMP180;44713;53.378;10.022;2023-07-20T10:05:33;101008.00;;;21.50
58929;BMP180;44713;53.378;10.022;2023-07-20T10:08:03;101010.00;;;21.50
58929;BMP180;44713;53.378;10.022;2023-07-20T10:10:31;101010.00;;;21.50
58929;BMP180;44713;53.378;10.022;2023-07-20T10:12:59;101013.00;;;21.50
58929;BMP180;44713;53.378;10.022;2023-07-20T10:15:30;101018.00;;;21.50
58929;BMP180;44713;53.378;10.022;2023-07-20T10:18:02;101024.00;;;21.30
58929;BMP180;44713;53.378;10.022;2023-07-20T10:20:28;101024.00;;;21.20
58929;BMP180;44713;53.378;10.022;2023-07-20T10:22:55;101013.00;;;20.80
58929;BMP180;44713;53.378;10.022;2023-07-20T10:25:22;101014.00;;;20.70
58929;BMP180;44713;53.378;10.022;2023-07-20T10:27:48;101020.00;;;20.70
58929;BMP180;44713;53.378;10.022;2023-07-20T10:30:14;101010.00;;;21.10
58929;BMP180;44713;53.378;10.022;2023-07-20T10:32:41;101004.00;;;21.70
58929;BMP180;44713;53.378;10.022;2023-07-20T10:35:15;101003.00;;;22.10
58929;BMP180;44713;53.378;10.022;2023-07-20T10:38:04;101015.00;;;21.90
58929;BMP180;44713;53.378;10.022;2023-07-20T10:40:38;101018.00;;;21.30
58929;BMP180;44713;53.378;10.022;2023-07-20T10:43:05;101013.00;;;21.60
58929;BMP180;44713;53.378;10.022;2023-07-20T10:45:39;101031.00;;;21.40
58929;BMP180;44713;53.378;10.022;2023-07-20T10:48:12;101017.00;;;21.20
58929;BMP180;44713;53.378;10.022;2023-07-20T10:50:38;101031.00;;;21.10
58929;BMP180;44713;53.378;10.022;2023-07-20T10:53:04;101036.00;;;20.70
58929;BMP180;44713;53.378;10.022;2023-07-20T10:55:34;101026.00;;;20.90
58929;BMP180;44713;53.378;10.022;2023-07-20T10:58:14;101031.00;;;21.30
58929;BMP180;44713;53.378;10.022;2023-07-20T11:01:02;101027.00;;;21.40
58929;BMP180;44713;53.378;10.022;2023-07-20T11:03:29;101034.00;;;21.30
58929;BMP180;44713;53.378;10.022;2023-07-20T11:05:56;101041.00;;;21.10
58929;BMP180;44713;53.378;10.022;2023-07-20T11:08:55;101031.00;;;21.30
58929;BMP180;44713;53.378;10.022;2023-07-20T11:11:25;101023.00;;;21.70
58929;BMP180;44713;53.378;10.022;2023-07-20T11:13:59;101023.00;;;22.10
58929;BMP180;44713;53.378;10.022;2023-07-20T11:16:41;101023.00;;;22.70
58929;BMP180;44713;53.378;10.022;2023-07-20T11:19:18;101028.00;;;22.70
58929;BMP180;44713;53.378;10.022;2023-07-20T11:21:46;101027.00;;;23.10
58929;BMP180;44713;53.378;10.022;2023-07-20T11:24:11;101034.00;;;22.70
58929;BMP180;44713;53.378;10.022;2023-07-20T11:26:49;101045.00;;;22.50
58929;BMP180;44713;53.378;10.022;2023-07-20T11:29:19;101053.00;;;21.40
58929;BMP180;44713;53.378;10.022;2023-07-20T11:31:46;101054.00;;;20.90
58929;BMP180;44713;53.378;10.022;2023-07-20T11:34:20;101084.00;;;20.50
58929;BMP180;44713;53.378;10.022;2023-07-20T11:36:50;101072.00;;;20.10
58929;BMP180;44713;53.378;10.022;2023-07-20T11:39:17;101073.00;;;20.20
58929;BMP180;44713;53.378;10.022;2023-07-20T11:41:49;101084.00;;;20.00
58929;BMP180;44713;53.378;10.022;2023-07-20T11:44:19;101076.00;;;20.20
58929;BMP180;44713;53.378;10.022;2023-07-20T11:46:46;101079.00;;;20.00
58929;BMP180;44713;53.378;10.022;2023-07-20T11:49:12;101079.00;;;19.60
58929;BMP180;44713;53.378;10.022;2023-07-20T11:51:38;101073.00;;;19.70
58929;BMP180;44713;53.378;10.022;2023-07-20T11:54:06;101074.00;;;19.70
58929;BMP180;44713;53.378;10.022;2023-07-20T11:56:32;101067.00;;;19.90
58929;BMP180;44713;53.378;10.022;2023-07-20T11:58:58;101065.00;;;20.40
58929;BMP180;44713;53.378;10.022;2023-07-20T12:01:26;101064.00;;;20.70
58929;BMP180;44713;53.378;10.022;2023-07-20T12:03:55;101053.00;;;20.70
58929;BMP180;44713;53.378;10.022;2023-07-20T12:06:23;101054.00;;;20.80
58929;BMP180;44713;53.378;10.022;2023-07-20T12:08:50;101047.00;;;21.00
58929;BMP180;44713;53.378;10.022;2023-07-20T12:13:58;101054.00;;;21.20
58929;BMP180;44713;53.378;10.022;2023-07-20T12:16:27;101050.00;;;21.10
58929;BMP180;44713;53.378;10.022;2023-07-20T12:19:04;101056.00;;;20.90
58929;BMP180;44713;53.378;10.022;2023-07-20T12:21:30;101054.00;;;20.90
58929;BMP180;44713;53.378;10.022;2023-07-20T12:23:57;101052.00;;;20.70
58929;BMP180;44713;53.378;10.022;2023-07-20T12:26:24;101048.00;;;20.70
58929;BMP180;44713;53.378;10.022;2023-07-20T12:28:51;101056.00;;;20.70
58929;BMP180;44713;53.378;10.022;2023-07-20T12:31:16;101044.00;;;20.80
58929;BMP180;44713;53.378;10.022;2023-07-20T12:33:42;101045.00;;;21.10
58929;BMP180;44713;53.378;10.022;2023-07-20T12:36:09;101041.00;;;21.50
58929;BMP180;44713;53.378;10.022;2023-07-20T12:38:34;101042.00;;;22.20
58929;BMP180;44713;53.378;10.022;2023-07-20T12:41:03;101062.00;;;22.10
58929;BMP180;44713;53.378;10.022;2023-07-20T12:43:28;101051.00;;;21.70
58929;BMP180;44713;53.378;10.022;2023-07-20T12:45:55;101059.00;;;21.40
58929;BMP180;44713;53.378;10.022;2023-07-20T12:48:20;101065.00;;;20.80
58929;BMP180;44713;53.378;10.022;2023-07-20T12:50:46;101066.00;;;20.40
58929;BMP180;44713;53.378;10.022;2023-07-20T12:53:11;101068.00;;;20.20
58929;BMP180;44713;53.378;10.022;2023-07-20T12:55:37;101076.00;;;20.20
58929;BMP180;44713;53.378;10.022;2023-07-20T12:58:03;101067.00;;;20.10
58929;BMP180;44713;53.378;10.022;2023-07-20T13:00:29;101079.00;;;19.90
58929;BMP180;44713;53.378;10.022;2023-07-20T13:02:54;101074.00;;;19.90
58929;BMP180;44713;53.378;10.022;2023-07-20T13:05:19;101067.00;;;19.60
58929;BMP180;44713;53.378;10.022;2023-07-20T13:07:45;101057.00;;;19.90
58929;BMP180;44713;53.378;10.022;2023-07-20T13:10:11;101050.00;;;20.80
58929;BMP180;44713;53.378;10.022;2023-07-20T13:12:37;101051.00;;;21.30
58929;BMP180;44713;53.378;10.022;2023-07-20T13:15:05;101050.00;;;22.00
58929;BMP180;44713;53.378;10.022;2023-07-20T13:17:35;101043.00;;;22.30
58929;BMP180;44713;53.378;10.022;2023-07-20T13:20:01;101048.00;;;22.80
58929;BMP180;44713;53.378;10.022;2023-07-20T13:22:26;101049.00;;;22.70
58929;BMP180;44713;53.378;10.022;2023-07-20T13:24:52;101052.00;;;22.80
58929;BMP180;44713;53.378;10.022;2023-07-20T13:27:18;101047.00;;;22.70
58929;BMP180;44713;53.378;10.022;2023-07-20T13:29:47;101050.00;;;23.00
58929;BMP180;44713;53.378;10.022;2023-07-20T13:32:13;101048.00;;;22.70
58929;BMP180;44713;53.378;10.022;2023-07-20T13:34:40;101056.00;;;22.40
58929;BMP180;44713;53.378;10.022;2023-07-20T13:37:05;101053.00;;;22.50
58929;BMP180;44713;53.378;10.022;2023-07-20T13:39:31;101055.00;;;22.70
58929;BMP180;44713;53.378;10.022;2023-07-20T13:41:56;101056.00;;;23.00
58929;BMP180;44713;53.378;10.022;2023-07-20T13:44:21;101060.00;;;22.50
58929;BMP180;44713;53.378;10.022;2023-07-20T13:46:47;101046.00;;;22.40
58929;BMP180;44713;53.378;10.022;2023-07-20T13:49:13;101059.00;;;22.70
58929;BMP180;44713;53.378;10.022;2023-07-20T13:51:39;101056.00;;;22.90